sensor_id;sensor_type;location;lat;lon;timestamp;P1;durP1;ratioP1;P2;durP2;ratioP2
61635;SDS011;59438;45.014;39.006;2023-06-19T00:02:16;23.20;;;8.30;;
61635;SDS011;59438;45.014;39.006;2023-06-19T00:04:44;16.30;;;7.90;;
61635;SDS011;59438;45.014;39.006;2023-06-19T00:07:10;12.80;;;7.70;;
61635;SDS011;59438;45.014;39.006;2023-06-19T00:09:37;14.50;;;7.13;;
61635;SDS011;59438;45.014;39.006;2023-06-19T00:12:03;16.20;;;7.30;;
61635;SDS011;59438;45.014;39.006;2023-06-19T00:14:30;12.30;;;6.55;;
61635;SDS011;59438;45.014;39.006;2023-06-19T00:16:57;16.80;;;7.72;;
61635;SDS011;59438;45.014;39.006;2023-06-19T00:19:23;13.77;;;7.50;;
61635;SDS011;59438;45.014;39.006;2023-06-19T00:21:51;14.25;;;7.22;;
61635;SDS011;59438;45.014;39.006;2023-06-19T00:24:18;14.10;;;6.68;;
61635;SDS011;59438;45.014;39.006;2023-06-19T00:26:44;9.27;;;7.40;;
61635;SDS011;59438;45.014;39.006;2023-06-19T00:29:11;15.15;;;7.15;;
61635;SDS011;59438;45.014;39.006;2023-06-19T00:31:37;13.45;;;7.00;;
61635;SDS011;59438;45.014;39.006;2023-06-19T00:34:04;12.90;;;7.38;;
61635;SDS011;59438;45.014;39.006;2023-06-19T00:36:30;13.48;;;6.78;;
61635;SDS011;59438;45.014;39.006;2023-06-19T00:38:58;12.70;;;7.13;;
61635;SDS011;59438;45.014;39.006;2023-06-19T00:41:25;17.10;;;7.75;;
61635;SDS011;59438;45.014;39.006;2023-06-19T00:43:53;15.77;;;7.45;;
61635;SDS011;59438;45.014;39.006;2023-06-19T00:46:19;10.90;;;7.50;;
61635;SDS011;59438;45.014;39.006;2023-06-19T00:48:46;11.07;;;7.25;;
61635;SDS011;59438;45.014;39.006;2023-06-19T00:51:12;13.20;;;7.68;;
61635;SDS011;59438;45.014;39.006;2023-06-19T00:53:39;16.40;;;7.30;;
61635;SDS011;59438;45.014;39.006;2023-06-19T00:56:07;15.65;;;7.93;;
61635;SDS011;59438;45.014;39.006;2023-06-19T00:58:33;12.02;;;7.57;;
61635;SDS011;59438;45.014;39.006;2023-06-19T01:00:59;15.93;;;9.15;;
61635;SDS011;59438;45.014;39.006;2023-06-19T01:03:26;21.13;;;9.57;;
61635;SDS011;59438;45.014;39.006;2023-06-19T01:05:53;16.40;;;10.52;;
61635;SDS011;59438;45.014;39.006;2023-06-19T01:08:28;20.30;;;11.30;;
61635;SDS011;59438;45.014;39.006;2023-06-19T01:11:10;17.95;;;9.52;;
61635;SDS011;59438;45.014;39.006;2023-06-19T01:13:40;26.67;;;11.65;;
61635;SDS011;59438;45.014;39.006;2023-06-19T01:16:10;59.15;;;25.98;;
61635;SDS011;59438;45.014;39.006;2023-06-19T01:18:37;68.93;;;28.63;;
61635;SDS011;59438;45.014;39.006;2023-06-19T01:21:09;64.35;;;29.10;;
61635;SDS011;59438;45.014;39.006;2023-06-19T01:23:38;54.67;;;25.00;;
61635;SDS011;59438;45.014;39.006;2023-06-19T01:26:05;63.15;;;32.22;;
61635;SDS011;59438;45.014;39.006;2023-06-19T01:28:31;55.47;;;28.60;;
61635;SDS011;59438;45.014;39.006;2023-06-19T01:30:57;48.10;;;27.23;;
61635;SDS011;59438;45.014;39.006;2023-06-19T01:33:28;42.63;;;22.08;;
61635;SDS011;59438;45.014;39.006;2023-06-19T01:35:57;31.95;;;18.55;;
61635;SDS011;59438;45.014;39.006;2023-06-19T01:38:24;27.98;;;17.00;;
61635;SDS011;59438;45.014;39.006;2023-06-19T01:40:54;22.90;;;12.85;;
61635;SDS011;59438;45.014;39.006;2023-06-19T01:43:23;19.33;;;10.88;;
61635;SDS011;59438;45.014;39.006;2023-06-19T01:45:50;20.52;;;10.50;;
61635;SDS011;59438;45.014;39.006;2023-06-19T01:48:17;19.65;;;9.70;;
61635;SDS011;59438;45.014;39.006;2023-06-19T01:50:45;17.73;;;9.63;;
61635;SDS011;59438;45.014;39.006;2023-06-19T01:53:11;25.38;;;15.27;;
61635;SDS011;59438;45.014;39.006;2023-06-19T01:55:37;41.30;;;32.28;;
61635;SDS011;59438;45.014;39.006;2023-06-19T01:58:05;50.15;;;44.78;;
61635;SDS011;59438;45.014;39.006;2023-06-19T02:00:32;79.18;;;70.63;;
61635;SDS011;59438;45.014;39.006;2023-06-19T02:02:59;102.38;;;91.50;;
61635;SDS011;59438;45.014;39.006;2023-06-19T02:05:25;118.63;;;106.43;;
61635;SDS011;59438;45.014;39.006;2023-06-19T02:07:51;114.30;;;102.82;;
61635;SDS011;59438;45.014;39.006;2023-06-19T02:10:18;106.68;;;95.30;;
61635;SDS011;59438;45.014;39.006;2023-06-19T02:12:44;107.25;;;95.97;;
61635;SDS011;59438;45.014;39.006;2023-06-19T02:15:12;102.65;;;91.93;;
61635;SDS011;59438;45.014;39.006;2023-06-19T02:17:38;106.63;;;95.65;;
61635;SDS011;59438;45.014;39.006;2023-06-19T02:20:05;99.53;;;88.70;;
61635;SDS011;59438;45.014;39.006;2023-06-19T02:22:32;78.93;;;70.55;;
61635;SDS011;59438;45.014;39.006;2023-06-19T02:24:59;79.10;;;70.82;;
61635;SDS011;59438;45.014;39.006;2023-06-19T02:27:25;57.60;;;50.30;;
61635;SDS011;59438;45.014;39.006;2023-06-19T02:29:51;55.40;;;49.03;;
61635;SDS011;59438;45.014;39.006;2023-06-19T02:32:19;59.13;;;52.42;;
61635;SDS011;59438;45.014;39.006;2023-06-19T02:34:46;65.93;;;56.38;;
61635;SDS011;59438;45.014;39.006;2023-06-19T02:37:12;85.20;;;75.80;;
61635;SDS011;59438;45.014;39.006;2023-06-19T02:39:38;93.30;;;83.05;;
61635;SDS011;59438;45.014;39.006;2023-06-19T02:42:05;103.63;;;91.88;;
61635;SDS011;59438;45.014;39.006;2023-06-19T02:44:32;111.57;;;94.65;;
61635;SDS011;59438;45.014;39.006;2023-06-19T02:46:59;28.52;;;15.23;;
61635;SDS011;59438;45.014;39.006;2023-06-19T02:49:27;17.38;;;11.57;;
61635;SDS011;59438;45.014;39.006;2023-06-19T02:51:53;15.55;;;10.68;;
61635;SDS011;59438;45.014;39.006;2023-06-19T02:54:19;21.30;;;10.15;;
61635;SDS011;59438;45.014;39.006;2023-06-19T02:56:46;16.58;;;9.10;;
61635;SDS011;59438;45.014;39.006;2023-06-19T02:59:12;17.48;;;10.07;;
61635;SDS011;59438;45.014;39.006;2023-06-19T03:01:38;13.70;;;9.55;;
61635;SDS011;59438;45.014;39.006;2023-06-19T03:04:05;13.15;;;10.02;;
61635;SDS011;59438;45.014;39.006;2023-06-19T03:06:32;15.98;;;9.32;;
61635;SDS011;59438;45.014;39.006;2023-06-19T03:08:59;15.82;;;9.88;;
61635;SDS011;59438;45.014;39.006;2023-06-19T03:11:25;16.13;;;9.73;;
61635;SDS011;59438;45.014;39.006;2023-06-19T03:13:52;18.23;;;9.88;;
61635;SDS011;59438;45.014;39.006;2023-06-19T03:16:19;18.73;;;9.77;;
61635;SDS011;59438;45.014;39.006;2023-06-19T03:18:46;18.15;;;10.23;;
61635;SDS011;59438;45.014;39.006;2023-06-19T03:21:13;16.13;;;10.32;;
61635;SDS011;59438;45.014;39.006;2023-06-19T03:23:42;21.77;;;9.50;;
61635;SDS011;59438;45.014;39.006;2023-06-19T03:26:08;21.88;;;10.27;;
61635;SDS011;59438;45.014;39.006;2023-06-19T03:28:35;23.35;;;9.95;;
61635;SDS011;59438;45.014;39.006;2023-06-19T03:31:01;19.77;;;10.48;;
61635;SDS011;59438;45.014;39.006;2023-06-19T03:33:27;22.52;;;9.98;;
61635;SDS011;59438;45.014;39.006;2023-06-19T03:35:54;18.25;;;10.55;;
61635;SDS011;59438;45.014;39.006;2023-06-19T03:38:21;20.80;;;10.68;;
61635;SDS011;59438;45.014;39.006;2023-06-19T03:40:48;19.30;;;11.00;;
61635;SDS011;59438;45.014;39.006;2023-06-19T03:43:15;18.83;;;10.20;;
61635;SDS011;59438;45.014;39.006;2023-06-19T03:45:41;20.25;;;10.45;;
61635;SDS011;59438;45.014;39.006;2023-06-19T03:48:07;17.05;;;10.13;;
61635;SDS011;59438;45.014;39.006;2023-06-19T03:50:34;24.25;;;10.55;;
61635;SDS011;59438;45.014;39.006;2023-06-19T03:53:00;22.67;;;10.85;;
61635;SDS011;59438;45.014;39.006;2023-06-19T03:55:26;23.48;;;10.18;;
61635;SDS011;59438;45.014;39.006;2023-06-19T03:57:54;19.83;;;10.45;;
61635;SDS011;59438;45.014;39.006;2023-06-19T04:00:21;16.70;;;10.35;;
61635;SDS011;59438;45.014;39.006;2023-06-19T04:02:47;20.40;;;10.75;;
61635;SDS011;59438;45.014;39.006;2023-06-19T04:05:13;21.38;;;10.45;;
61635;SDS011;59438;45.014;39.006;2023-06-19T04:07:40;19.92;;;9.52;;
61635;SDS011;59438;45.014;39.006;2023-06-19T04:10:07;16.08;;;8.88;;
61635;SDS011;59438;45.014;39.006;2023-06-19T04:12:33;22.15;;;9.60;;
61635;SDS011;59438;45.014;39.006;2023-06-19T04:15:01;15.32;;;8.98;;
61635;SDS011;59438;45.014;39.006;2023-06-19T04:17:29;22.07;;;9.30;;
61635;SDS011;59438;45.014;39.006;2023-06-19T04:19:56;13.82;;;8.38;;
61635;SDS011;59438;45.014;39.006;2023-06-19T04:22:22;13.93;;;8.38;;
61635;SDS011;59438;45.014;39.006;2023-06-19T04:24:48;16.52;;;8.55;;
61635;SDS011;59438;45.014;39.006;2023-06-19T04:27:15;17.20;;;7.63;;
61635;SDS011;59438;45.014;39.006;2023-06-19T04:29:41;10.88;;;8.05;;
61635;SDS011;59438;45.014;39.006;2023-06-19T04:32:09;20.85;;;8.57;;
61635;SDS011;59438;45.014;39.006;2023-06-19T04:34:36;16.90;;;7.95;;
61635;SDS011;59438;45.014;39.006;2023-06-19T04:37:04;19.58;;;8.32;;
61635;SDS011;59438;45.014;39.006;2023-06-19T04:39:31;14.98;;;7.57;;
61635;SDS011;59438;45.014;39.006;2023-06-19T04:41:58;14.73;;;7.40;;
61635;SDS011;59438;45.014;39.006;2023-06-19T04:44:24;11.63;;;8.10;;
61635;SDS011;59438;45.014;39.006;2023-06-19T04:46:50;16.98;;;7.80;;
61635;SDS011;59438;45.014;39.006;2023-06-19T04:49:18;13.18;;;7.47;;
61635;SDS011;59438;45.014;39.006;2023-06-19T04:51:44;23.52;;;7.60;;
61635;SDS011;59438;45.014;39.006;2023-06-19T04:54:11;17.05;;;6.65;;
61635;SDS011;59438;45.014;39.006;2023-06-19T04:56:39;23.55;;;7.38;;
61635;SDS011;59438;45.014;39.006;2023-06-19T04:59:06;18.40;;;7.47;;
61635;SDS011;59438;45.014;39.006;2023-06-19T05:01:33;20.08;;;7.55;;
61635;SDS011;59438;45.014;39.006;2023-06-19T05:03:59;20.35;;;7.03;;
61635;SDS011;59438;45.014;39.006;2023-06-19T05:06:27;19.02;;;7.32;;
61635;SDS011;59438;45.014;39.006;2023-06-19T05:08:53;15.00;;;7.40;;
61635;SDS011;59438;45.014;39.006;2023-06-19T05:11:20;21.45;;;6.75;;
61635;SDS011;59438;45.014;39.006;2023-06-19T05:13:46;14.13;;;6.80;;
61635;SDS011;59438;45.014;39.006;2023-06-19T05:16:12;17.17;;;7.15;;
61635;SDS011;59438;45.014;39.006;2023-06-19T05:18:39;10.50;;;4.70;;
61635;SDS011;59438;45.014;39.006;2023-06-19T05:21:05;10.63;;;4.45;;
61635;SDS011;59438;45.014;39.006;2023-06-19T05:23:33;7.88;;;3.67;;
61635;SDS011;59438;45.014;39.006;2023-06-19T05:26:00;7.18;;;4.07;;
61635;SDS011;59438;45.014;39.006;2023-06-19T05:28:26;6.43;;;3.67;;
61635;SDS011;59438;45.014;39.006;2023-06-19T05:30:53;9.63;;;3.60;;
61635;SDS011;59438;45.014;39.006;2023-06-19T05:33:19;11.40;;;4.07;;
61635;SDS011;59438;45.014;39.006;2023-06-19T05:35:45;8.77;;;3.40;;
61635;SDS011;59438;45.014;39.006;2023-06-19T05:38:12;10.63;;;3.20;;
61635;SDS011;59438;45.014;39.006;2023-06-19T05:40:39;9.05;;;3.38;;
61635;SDS011;59438;45.014;39.006;2023-06-19T05:43:06;13.40;;;3.40;;
61635;SDS011;59438;45.014;39.006;2023-06-19T05:45:32;7.70;;;3.63;;
61635;SDS011;59438;45.014;39.006;2023-06-19T05:47:58;8.48;;;3.03;;
61635;SDS011;59438;45.014;39.006;2023-06-19T05:50:25;7.45;;;3.30;;
61635;SDS011;59438;45.014;39.006;2023-06-19T05:52:51;5.50;;;3.15;;
61635;SDS011;59438;45.014;39.006;2023-06-19T05:55:17;9.88;;;3.15;;
61635;SDS011;59438;45.014;39.006;2023-06-19T05:57:46;9.23;;;3.50;;
61635;SDS011;59438;45.014;39.006;2023-06-19T06:00:12;10.20;;;3.10;;
61635;SDS011;59438;45.014;39.006;2023-06-19T06:02:40;5.65;;;3.08;;
61635;SDS011;59438;45.014;39.006;2023-06-19T06:05:07;8.10;;;3.00;;
61635;SDS011;59438;45.014;39.006;2023-06-19T06:07:34;6.00;;;3.10;;
61635;SDS011;59438;45.014;39.006;2023-06-19T06:10:00;7.05;;;3.42;;
61635;SDS011;59438;45.014;39.006;2023-06-19T06:12:27;4.38;;;3.08;;
61635;SDS011;59438;45.014;39.006;2023-06-19T06:14:54;7.18;;;3.00;;
61635;SDS011;59438;45.014;39.006;2023-06-19T06:17:21;13.25;;;3.53;;
61635;SDS011;59438;45.014;39.006;2023-06-19T06:19:48;7.38;;;3.80;;
61635;SDS011;59438;45.014;39.006;2023-06-19T06:22:14;7.85;;;3.28;;
61635;SDS011;59438;45.014;39.006;2023-06-19T06:24:40;6.93;;;3.00;;
61635;SDS011;59438;45.014;39.006;2023-06-19T06:27:07;6.13;;;3.08;;
61635;SDS011;59438;45.014;39.006;2023-06-19T06:29:33;10.25;;;3.10;;
61635;SDS011;59438;45.014;39.006;2023-06-19T06:32:05;10.82;;;2.83;;
61635;SDS011;59438;45.014;39.006;2023-06-19T06:34:32;6.57;;;2.78;;
61635;SDS011;59438;45.014;39.006;2023-06-19T06:36:59;5.00;;;2.78;;
61635;SDS011;59438;45.014;39.006;2023-06-19T06:39:26;6.18;;;2.90;;
61635;SDS011;59438;45.014;39.006;2023-06-19T06:41:52;6.00;;;2.70;;
61635;SDS011;59438;45.014;39.006;2023-06-19T06:44:19;5.40;;;2.53;;
61635;SDS011;59438;45.014;39.006;2023-06-19T06:46:45;10.20;;;2.65;;
61635;SDS011;59438;45.014;39.006;2023-06-19T06:49:13;5.72;;;2.50;;
61635;SDS011;59438;45.014;39.006;2023-06-19T06:51:39;5.63;;;2.80;;
61635;SDS011;59438;45.014;39.006;2023-06-19T06:54:06;9.98;;;2.45;;
61635;SDS011;59438;45.014;39.006;2023-06-19T06:56:32;10.60;;;3.28;;
61635;SDS011;59438;45.014;39.006;2023-06-19T06:58:59;4.75;;;2.70;;
61635;SDS011;59438;45.014;39.006;2023-06-19T07:01:25;4.03;;;2.30;;
61635;SDS011;59438;45.014;39.006;2023-06-19T07:03:51;7.05;;;2.58;;
61635;SDS011;59438;45.014;39.006;2023-06-19T07:06:19;3.10;;;2.15;;
61635;SDS011;59438;45.014;39.006;2023-06-19T07:08:46;4.45;;;2.47;;
61635;SDS011;59438;45.014;39.006;2023-06-19T07:11:12;11.13;;;2.30;;
61635;SDS011;59438;45.014;39.006;2023-06-19T07:13:38;6.55;;;2.88;;
61635;SDS011;59438;45.014;39.006;2023-06-19T07:16:05;3.50;;;2.50;;
61635;SDS011;59438;45.014;39.006;2023-06-19T07:18:31;5.22;;;2.40;;
61635;SDS011;59438;45.014;39.006;2023-06-19T07:20:57;5.70;;;2.45;;
61635;SDS011;59438;45.014;39.006;2023-06-19T07:23:25;6.40;;;2.70;;
61635;SDS011;59438;45.014;39.006;2023-06-19T07:25:52;5.22;;;2.83;;
61635;SDS011;59438;45.014;39.006;2023-06-19T07:28:18;5.60;;;2.80;;
61635;SDS011;59438;45.014;39.006;2023-06-19T07:30:44;11.00;;;3.40;;
61635;SDS011;59438;45.014;39.006;2023-06-19T07:33:11;6.88;;;2.60;;
61635;SDS011;59438;45.014;39.006;2023-06-19T07:35:37;8.45;;;2.67;;
61635;SDS011;59438;45.014;39.006;2023-06-19T07:38:03;6.13;;;2.63;;
61635;SDS011;59438;45.014;39.006;2023-06-19T07:40:31;7.18;;;2.58;;
61635;SDS011;59438;45.014;39.006;2023-06-19T07:42:58;7.82;;;3.00;;
61635;SDS011;59438;45.014;39.006;2023-06-19T07:45:24;4.78;;;2.85;;
61635;SDS011;59438;45.014;39.006;2023-06-19T07:47:53;7.97;;;3.20;;
61635;SDS011;59438;45.014;39.006;2023-06-19T07:50:20;7.18;;;2.83;;
61635;SDS011;59438;45.014;39.006;2023-06-19T07:52:46;8.18;;;3.22;;
61635;SDS011;59438;45.014;39.006;2023-06-19T07:55:13;10.05;;;3.13;;
61635;SDS011;59438;45.014;39.006;2023-06-19T07:57:41;10.52;;;3.38;;
61635;SDS011;59438;45.014;39.006;2023-06-19T08:00:07;6.35;;;2.97;;
61635;SDS011;59438;45.014;39.006;2023-06-19T08:02:35;10.57;;;3.25;;
61635;SDS011;59438;45.014;39.006;2023-06-19T08:05:01;10.70;;;3.97;;
61635;SDS011;59438;45.014;39.006;2023-06-19T08:07:28;7.35;;;3.70;;
61635;SDS011;59438;45.014;39.006;2023-06-19T08:09:54;13.32;;;6.25;;
61635;SDS011;59438;45.014;39.006;2023-06-19T08:12:20;9.57;;;3.47;;
61635;SDS011;59438;45.014;39.006;2023-06-19T08:14:48;11.05;;;3.67;;
61635;SDS011;59438;45.014;39.006;2023-06-19T08:17:15;6.97;;;3.42;;
61635;SDS011;59438;45.014;39.006;2023-06-19T08:19:41;7.07;;;3.63;;
61635;SDS011;59438;45.014;39.006;2023-06-19T08:22:07;8.30;;;3.58;;
61635;SDS011;59438;45.014;39.006;2023-06-19T08:24:34;8.57;;;3.90;;
61635;SDS011;59438;45.014;39.006;2023-06-19T08:27:01;8.40;;;3.55;;
61635;SDS011;59438;45.014;39.006;2023-06-19T08:29:27;7.07;;;3.53;;
61635;SDS011;59438;45.014;39.006;2023-06-19T08:31:55;6.85;;;3.67;;
61635;SDS011;59438;45.014;39.006;2023-06-19T08:34:21;7.05;;;3.60;;
61635;SDS011;59438;45.014;39.006;2023-06-19T08:36:48;8.38;;;3.63;;
61635;SDS011;59438;45.014;39.006;2023-06-19T08:39:14;8.40;;;4.15;;
61635;SDS011;59438;45.014;39.006;2023-06-19T08:41:40;7.68;;;3.80;;
61635;SDS011;59438;45.014;39.006;2023-06-19T08:44:07;14.68;;;4.32;;
61635;SDS011;59438;45.014;39.006;2023-06-19T08:46:34;11.80;;;4.03;;
61635;SDS011;59438;45.014;39.006;2023-06-19T08:49:02;9.75;;;4.30;;
61635;SDS011;59438;45.014;39.006;2023-06-19T08:51:28;9.75;;;3.50;;
61635;SDS011;59438;45.014;39.006;2023-06-19T08:53:56;13.45;;;4.13;;
61635;SDS011;59438;45.014;39.006;2023-06-19T08:56:26;14.32;;;3.88;;
61635;SDS011;59438;45.014;39.006;2023-06-19T08:58:53;7.57;;;4.10;;
61635;SDS011;59438;45.014;39.006;2023-06-19T09:01:19;11.40;;;4.38;;
61635;SDS011;59438;45.014;39.006;2023-06-19T09:03:46;12.93;;;4.18;;
61635;SDS011;59438;45.014;39.006;2023-06-19T09:06:16;11.63;;;4.18;;
61635;SDS011;59438;45.014;39.006;2023-06-19T09:08:42;12.18;;;4.07;;
61635;SDS011;59438;45.014;39.006;2023-06-19T09:11:08;11.05;;;4.25;;
61635;SDS011;59438;45.014;39.006;2023-06-19T09:13:37;12.23;;;5.70;;
61635;SDS011;59438;45.014;39.006;2023-06-19T09:16:04;8.63;;;4.28;;
61635;SDS011;59438;45.014;39.006;2023-06-19T09:18:31;8.90;;;4.15;;
61635;SDS011;59438;45.014;39.006;2023-06-19T09:21:15;8.75;;;3.83;;
61635;SDS011;59438;45.014;39.006;2023-06-19T09:23:42;10.10;;;4.32;;
61635;SDS011;59438;45.014;39.006;2023-06-19T09:26:09;6.57;;;4.10;;
61635;SDS011;59438;45.014;39.006;2023-06-19T09:28:39;6.75;;;4.03;;
61635;SDS011;59438;45.014;39.006;2023-06-19T09:31:06;11.40;;;4.18;;
61635;SDS011;59438;45.014;39.006;2023-06-19T09:33:33;9.85;;;4.35;;
61635;SDS011;59438;45.014;39.006;2023-06-19T09:36:00;6.22;;;3.97;;
61635;SDS011;59438;45.014;39.006;2023-06-19T09:38:30;8.35;;;4.30;;
61635;SDS011;59438;45.014;39.006;2023-06-19T09:40:57;10.60;;;4.37;;
61635;SDS011;59438;45.014;39.006;2023-06-19T09:43:29;8.30;;;4.15;;
61635;SDS011;59438;45.014;39.006;2023-06-19T09:46:00;9.80;;;3.88;;
61635;SDS011;59438;45.014;39.006;2023-06-19T09:48:28;13.80;;;4.45;;
61635;SDS011;59438;45.014;39.006;2023-06-19T09:50:58;8.05;;;4.40;;
61635;SDS011;59438;45.014;39.006;2023-06-19T09:53:26;10.27;;;4.35;;
61635;SDS011;59438;45.014;39.006;2023-06-19T09:55:54;11.90;;;4.30;;
61635;SDS011;59438;45.014;39.006;2023-06-19T09:58:21;10.05;;;3.90;;
61635;SDS011;59438;45.014;39.006;2023-06-19T10:00:48;6.45;;;3.85;;
61635;SDS011;59438;45.014;39.006;2023-06-19T10:03:15;9.50;;;3.95;;
61635;SDS011;59438;45.014;39.006;2023-06-19T10:05:41;10.32;;;4.15;;
61635;SDS011;59438;45.014;39.006;2023-06-19T10:08:08;11.30;;;4.22;;
61635;SDS011;59438;45.014;39.006;2023-06-19T10:10:35;10.30;;;3.92;;
61635;SDS011;59438;45.014;39.006;2023-06-19T10:13:12;10.23;;;3.70;;
61635;SDS011;59438;45.014;39.006;2023-06-19T10:15:40;8.25;;;3.63;;
61635;SDS011;59438;45.014;39.006;2023-06-19T10:18:07;7.90;;;4.03;;
61635;SDS011;59438;45.014;39.006;2023-06-19T10:20:34;6.80;;;3.55;;
61635;SDS011;59438;45.014;39.006;2023-06-19T10:23:02;7.40;;;3.58;;
61635;SDS011;59438;45.014;39.006;2023-06-19T10:25:31;7.80;;;3.47;;
61635;SDS011;59438;45.014;39.006;2023-06-19T10:27:58;7.53;;;4.00;;
61635;SDS011;59438;45.014;39.006;2023-06-19T10:30:27;9.20;;;3.78;;
61635;SDS011;59438;45.014;39.006;2023-06-19T10:32:54;11.95;;;4.35;;
61635;SDS011;59438;45.014;39.006;2023-06-19T10:35:20;8.05;;;3.78;;
61635;SDS011;59438;45.014;39.006;2023-06-19T10:37:47;8.55;;;4.03;;
61635;SDS011;59438;45.014;39.006;2023-06-19T10:40:13;9.07;;;4.00;;
61635;SDS011;59438;45.014;39.006;2023-06-19T10:42:40;6.45;;;3.63;;
61635;SDS011;59438;45.014;39.006;2023-06-19T10:45:07;9.73;;;4.22;;
61635;SDS011;59438;45.014;39.006;2023-06-19T10:47:37;10.13;;;4.18;;
61635;SDS011;59438;45.014;39.006;2023-06-19T10:50:04;10.60;;;4.20;;
61635;SDS011;59438;45.014;39.006;2023-06-19T10:52:35;10.40;;;3.78;;
61635;SDS011;59438;45.014;39.006;2023-06-19T10:55:01;7.22;;;3.75;;
61635;SDS011;59438;45.014;39.006;2023-06-19T10:57:30;8.93;;;4.03;;
61635;SDS011;59438;45.014;39.006;2023-06-19T10:59:58;7.38;;;3.90;;
61635;SDS011;59438;45.014;39.006;2023-06-19T11:02:25;13.07;;;3.80;;
61635;SDS011;59438;45.014;39.006;2023-06-19T11:04:53;13.88;;;4.45;;
61635;SDS011;59438;45.014;39.006;2023-06-19T11:07:20;11.88;;;4.60;;
61635;SDS011;59438;45.014;39.006;2023-06-19T11:09:48;10.77;;;4.20;;
61635;SDS011;59438;45.014;39.006;2023-06-19T11:12:18;10.00;;;3.85;;
61635;SDS011;59438;45.014;39.006;2023-06-19T11:14:45;9.57;;;4.22;;
61635;SDS011;59438;45.014;39.006;2023-06-19T11:17:12;11.68;;;4.45;;
61635;SDS011;59438;45.014;39.006;2023-06-19T11:19:39;8.63;;;4.15;;
61635;SDS011;59438;45.014;39.006;2023-06-19T11:22:07;10.40;;;4.40;;
61635;SDS011;59438;45.014;39.006;2023-06-19T11:24:33;12.30;;;4.40;;
61635;SDS011;59438;45.014;39.006;2023-06-19T11:27:00;9.80;;;4.68;;
61635;SDS011;59438;45.014;39.006;2023-06-19T11:29:28;18.13;;;5.40;;
61635;SDS011;59438;45.014;39.006;2023-06-19T11:32:04;12.20;;;4.60;;
61635;SDS011;59438;45.014;39.006;2023-06-19T11:34:31;10.00;;;4.43;;
61635;SDS011;59438;45.014;39.006;2023-06-19T11:36:59;10.00;;;3.95;;
61635;SDS011;59438;45.014;39.006;2023-06-19T11:39:27;12.40;;;4.13;;
61635;SDS011;59438;45.014;39.006;2023-06-19T11:41:54;12.00;;;4.20;;
61635;SDS011;59438;45.014;39.006;2023-06-19T11:44:20;12.70;;;4.35;;
61635;SDS011;59438;45.014;39.006;2023-06-19T11:46:47;23.40;;;4.65;;
61635;SDS011;59438;45.014;39.006;2023-06-19T11:49:13;14.90;;;4.32;;
61635;SDS011;59438;45.014;39.006;2023-06-19T11:51:40;15.35;;;4.43;;
61635;SDS011;59438;45.014;39.006;2023-06-19T11:54:08;8.57;;;4.65;;
61635;SDS011;59438;45.014;39.006;2023-06-19T11:56:37;17.38;;;4.85;;
61635;SDS011;59438;45.014;39.006;2023-06-19T11:59:04;11.70;;;4.78;;
61635;SDS011;59438;45.014;39.006;2023-06-19T12:01:31;11.30;;;4.30;;
61635;SDS011;59438;45.014;39.006;2023-06-19T12:03:58;10.27;;;4.60;;
61635;SDS011;59438;45.014;39.006;2023-06-19T12:06:24;12.15;;;4.30;;
61635;SDS011;59438;45.014;39.006;2023-06-19T12:08:51;13.48;;;4.60;;
61635;SDS011;59438;45.014;39.006;2023-06-19T12:11:17;12.40;;;4.47;;
61635;SDS011;59438;45.014;39.006;2023-06-19T12:13:45;11.00;;;4.72;;
61635;SDS011;59438;45.014;39.006;2023-06-19T12:16:11;12.35;;;4.88;;
61635;SDS011;59438;45.014;39.006;2023-06-19T12:18:39;9.73;;;4.20;;
61635;SDS011;59438;45.014;39.006;2023-06-19T12:21:06;15.82;;;5.13;;
61635;SDS011;59438;45.014;39.006;2023-06-19T12:23:33;15.23;;;4.97;;
61635;SDS011;59438;45.014;39.006;2023-06-19T12:25:59;29.55;;;6.10;;
61635;SDS011;59438;45.014;39.006;2023-06-19T12:28:25;10.38;;;4.53;;
61635;SDS011;59438;45.014;39.006;2023-06-19T12:30:53;12.95;;;5.03;;
61635;SDS011;59438;45.014;39.006;2023-06-19T12:33:20;12.65;;;4.53;;
61635;SDS011;59438;45.014;39.006;2023-06-19T12:35:46;10.98;;;4.22;;
61635;SDS011;59438;45.014;39.006;2023-06-19T12:38:13;13.65;;;5.07;;
61635;SDS011;59438;45.014;39.006;2023-06-19T12:40:39;10.45;;;4.68;;
61635;SDS011;59438;45.014;39.006;2023-06-19T12:43:06;12.88;;;5.00;;
61635;SDS011;59438;45.014;39.006;2023-06-19T12:45:33;13.38;;;7.18;;
61635;SDS011;59438;45.014;39.006;2023-06-19T12:48:01;26.67;;;12.18;;
61635;SDS011;59438;45.014;39.006;2023-06-19T12:50:27;27.23;;;10.45;;
61635;SDS011;59438;45.014;39.006;2023-06-19T12:52:53;16.02;;;6.03;;
61635;SDS011;59438;45.014;39.006;2023-06-19T12:55:20;12.80;;;5.28;;
61635;SDS011;59438;45.014;39.006;2023-06-19T12:57:46;10.18;;;5.00;;
61635;SDS011;59438;45.014;39.006;2023-06-19T13:00:13;10.77;;;5.15;;
61635;SDS011;59438;45.014;39.006;2023-06-19T13:02:40;10.32;;;4.93;;
61635;SDS011;59438;45.014;39.006;2023-06-19T13:05:08;11.48;;;4.70;;
61635;SDS011;59438;45.014;39.006;2023-06-19T13:07:35;12.48;;;5.63;;
61635;SDS011;59438;45.014;39.006;2023-06-19T13:10:01;11.80;;;5.50;;
61635;SDS011;59438;45.014;39.006;2023-06-19T13:12:28;10.15;;;5.30;;
61635;SDS011;59438;45.014;39.006;2023-06-19T13:14:54;8.93;;;5.18;;
61635;SDS011;59438;45.014;39.006;2023-06-19T13:17:20;10.93;;;5.15;;
61635;SDS011;59438;45.014;39.006;2023-06-19T13:19:47;9.70;;;5.07;;
61635;SDS011;59438;45.014;39.006;2023-06-19T13:22:14;13.65;;;5.07;;
61635;SDS011;59438;45.014;39.006;2023-06-19T13:24:41;11.43;;;3.67;;
61635;SDS011;59438;45.014;39.006;2023-06-19T13:27:07;8.70;;;3.38;;
61635;SDS011;59438;45.014;39.006;2023-06-19T13:29:33;7.28;;;3.10;;
61635;SDS011;59438;45.014;39.006;2023-06-19T13:32:00;8.70;;;3.92;;
61635;SDS011;59438;45.014;39.006;2023-06-19T13:34:26;19.48;;;5.30;;
61635;SDS011;59438;45.014;39.006;2023-06-19T13:36:53;12.45;;;5.95;;
61635;SDS011;59438;45.014;39.006;2023-06-19T13:39:21;12.15;;;4.03;;
61635;SDS011;59438;45.014;39.006;2023-06-19T13:41:47;11.13;;;4.75;;
61635;SDS011;59438;45.014;39.006;2023-06-19T13:44:13;6.53;;;3.15;;
61635;SDS011;59438;45.014;39.006;2023-06-19T13:46:40;8.07;;;3.45;;
61635;SDS011;59438;45.014;39.006;2023-06-19T13:49:06;8.25;;;4.57;;
61635;SDS011;59438;45.014;39.006;2023-06-19T13:51:33;7.40;;;3.40;;
61635;SDS011;59438;45.014;39.006;2023-06-19T13:53:59;7.55;;;2.85;;
61635;SDS011;59438;45.014;39.006;2023-06-19T13:56:27;22.98;;;4.70;;
61635;SDS011;59438;45.014;39.006;2023-06-19T13:58:53;22.40;;;4.90;;
61635;SDS011;59438;45.014;39.006;2023-06-19T14:01:20;24.67;;;5.82;;
61635;SDS011;59438;45.014;39.006;2023-06-19T14:03:46;14.07;;;4.15;;
61635;SDS011;59438;45.014;39.006;2023-06-19T14:06:13;9.98;;;3.30;;
61635;SDS011;59438;45.014;39.006;2023-06-19T14:08:39;13.00;;;4.00;;
61635;SDS011;59438;45.014;39.006;2023-06-19T14:11:06;11.30;;;3.80;;
61635;SDS011;59438;45.014;39.006;2023-06-19T14:13:33;9.02;;;4.32;;
61635;SDS011;59438;45.014;39.006;2023-06-19T14:16:00;8.18;;;4.20;;
61635;SDS011;59438;45.014;39.006;2023-06-19T14:18:26;6.60;;;3.15;;
61635;SDS011;59438;45.014;39.006;2023-06-19T14:20:53;13.68;;;3.95;;
61635;SDS011;59438;45.014;39.006;2023-06-19T14:23:19;14.57;;;5.10;;